To NAV CANADA Home Page Login to a new session Search on AWWS site Feedback and Comments Disclaimer Vers la page française équivalente Tips FAQ What's new on the site To the Forecasts and Observations / NOTAM section To "File a Flight Plan" website Publications and other links Update of the User's profile FIC Telephone Numbers My Weather Data Folder Route Weather Data Regional Weather Data Local Weather Data To the Forecasts and Observations / NOTAM section
Request Generated 09/25/2016 at 08:49:17 UTC . Weather information available at that time is displayed.

METAR/TAF

ISLAND LAKE/MB    

SPECI CYIV 250845Z 13011G17KT 10SM OVC010 14/12 A2974 RMK SC8 BR
SLP080 DENSITY ALT 900FT=
METAR CYIV 250800Z 12012G17KT 15SM -SHRA OVC010TCU 13/12 A2976 RMK
TCU8 SLP085 DENSITY ALT 900FT=
METAR CYIV 250700Z 14014G20KT 12SM -SHRA OVC010TCU 13/12 A2980 RMK
TCU8 SLP098 DENSITY ALT 800FT=
METAR CYIV 250600Z 14012KT 12SM -SHRA OVC013TCU 13/12 A2982 RMK TCU8
SLP105 DENSITY ALT 800FT=

TAF CYIV 250638Z 2507/2519 14012KT P6SM SCT006 BKN012 OVC060 TEMPO
2507/2519 2SM -RA BR BKN006 OVC060 PROB30 2507/2513 VRB15G25KT
2SM TSRA BKN006 OVC040CB
RMK NXT FCST BY 251300Z=
Your time UTC time
Weather data provided by Environment Canada and NAV CANADA